Time;durP1;ratioP1;P1;durP2;ratioP2;P2;SDS_P1;SDS_P2;PMS_P1;PMS_P2;Temp;Humidity;BMP_temperature;BMP_pressure;BME280_temperature;BME280_humidity;BME280_pressure;Samples;Min_cycle;Max_cycle;Signal;HPM_P1;HPM_P2
2023/03/20 00:00:09;;;;;;;8.70;3.10;;;;;;;9.73;100.00;101037.72;5052675;28;20484;-67
2023/03/20 00:02:37;;;;;;;16.67;3.20;;;;;;;9.65;100.00;101049.97;5056606;28;20831;-67
2023/03/20 00:05:15;;;;;;;12.10;3.67;;;;;;;9.56;100.00;101052.50;5056529;28;20548;-66
2023/03/20 00:07:42;;;;;;;7.10;2.30;;;;;;;9.47;100.00;101045.22;5056207;28;20437;-67
2023/03/20 00:10:10;;;;;;;11.50;3.60;;;;;;;9.41;100.00;101041.78;5056050;28;20584;-66
2023/03/20 00:12:37;;;;;;;7.67;3.30;;;;;;;9.29;100.00;101039.41;5056371;28;20464;-67
2023/03/20 00:15:14;;;;;;;8.90;3.20;;;;;;;9.30;100.00;101034.84;5056367;28;20529;-66
2023/03/20 00:17:41;;;;;;;8.33;3.33;;;;;;;9.28;100.00;101045.91;5056299;28;20910;-67
2023/03/20 00:20:14;;;;;;;9.90;3.50;;;;;;;9.22;100.00;101038.94;5056238;28;20480;-67
2023/03/20 00:22:40;;;;;;;7.40;3.33;;;;;;;9.13;100.00;101046.03;5056176;28;20430;-67
2023/03/20 00:25:12;;;;;;;8.17;2.90;;;;;;;9.07;100.00;101039.84;5056081;28;20965;-67
2023/03/20 00:27:39;;;;;;;8.03;3.20;;;;;;;9.00;100.00;101043.94;5056195;28;20488;-67
2023/03/20 00:30:18;;;;;;;9.60;4.60;;;;;;;8.99;100.00;101045.03;5056067;28;20552;-67
2023/03/20 00:32:45;;;;;;;11.30;4.23;;;;;;;8.95;100.00;101035.88;5055796;28;20934;-67
2023/03/20 00:35:18;;;;;;;17.03;4.80;;;;;;;8.94;100.00;101031.53;5056014;28;20525;-67
2023/03/20 00:37:45;;;;;;;8.20;3.67;;;;;;;8.89;100.00;101028.84;5055961;28;20510;-67
2023/03/20 00:40:13;;;;;;;8.63;3.10;;;;;;;8.83;100.00;101031.59;5055573;28;20473;-66
2023/03/20 00:42:40;;;;;;;8.20;3.80;;;;;;;8.82;100.00;101023.78;5055446;28;20446;-67
2023/03/20 00:45:13;;;;;;;12.27;4.30;;;;;;;8.79;100.00;101030.53;5055800;28;20434;-67
2023/03/20 00:47:40;;;;;;;8.33;3.63;;;;;;;8.66;100.00;101028.44;5055872;28;20427;-66
2023/03/20 00:50:14;;;;;;;8.43;3.83;;;;;;;8.60;100.00;101026.84;5055668;28;20464;-67
2023/03/20 00:52:41;;;;;;;7.30;3.40;;;;;;;8.54;100.00;101023.38;5055373;28;20954;-67
2023/03/20 00:55:08;;;;;;;10.17;3.10;;;;;;;8.52;100.00;101017.44;5055653;28;20446;-67
2023/03/20 00:57:40;;;;;;;9.03;2.80;;;;;;;8.40;100.00;101022.31;5055525;28;20525;-67
2023/03/20 01:00:17;;;;;;;5.73;2.20;;;;;;;8.43;100.00;101021.78;5055199;28;21002;-66
2023/03/20 01:02:44;;;;;;;6.20;2.40;;;;;;;8.44;100.00;101023.38;5055118;28;20900;-67
2023/03/20 01:05:11;;;;;;;15.20;2.63;;;;;;;8.38;100.00;101029.09;5055433;28;20442;-67
2023/03/20 01:07:39;;;;;;;9.47;2.60;;;;;;;8.34;100.00;101024.22;5055395;28;20449;-67
2023/03/20 01:10:06;;;;;;;8.17;3.00;;;;;;;8.35;100.00;101023.13;5054915;28;20513;-66
2023/03/20 01:12:33;;;;;;;9.87;3.40;;;;;;;8.34;100.00;101021.50;5054521;28;20449;-67
2023/03/20 01:15:00;;;;;;;6.87;2.70;;;;;;;8.40;100.00;101021.53;5055235;28;20462;-67
2023/03/20 01:17:29;;;;;;;6.73;2.70;;;;;;;8.43;100.00;101018.28;5085581;22;20938;-84
2023/03/20 01:19:55;;;;;;;8.40;3.33;;;;;;;8.44;100.00;101025.28;5092029;28;20479;-85
2023/03/20 01:22:22;;;;;;;8.07;3.33;;;;;;;8.45;100.00;101022.31;5078083;28;20445;-82
2023/03/20 01:24:49;;;;;;;8.70;3.33;;;;;;;8.52;100.00;101017.44;5077421;28;20536;-82
2023/03/20 01:27:18;;;;;;;7.07;3.03;;;;;;;8.50;100.00;101024.16;5076816;28;20430;-82
2023/03/20 01:29:45;;;;;;;8.93;3.40;;;;;;;8.53;100.00;101026.31;5077202;28;20497;-82
2023/03/20 01:32:14;;;;;;;8.77;3.60;;;;;;;8.56;100.00;101028.47;5078255;28;20434;-82
2023/03/20 01:34:42;;;;;;;8.87;3.43;;;;;;;8.61;100.00;101039.25;5077949;28;20525;-82
2023/03/20 01:37:12;;;;;;;7.37;2.57;;;;;;;8.67;100.00;101038.16;5078106;28;20453;-82
2023/03/20 01:39:39;;;;;;;9.20;3.37;;;;;;;8.72;100.00;101030.03;5077926;28;20507;-82
2023/03/20 01:42:07;;;;;;;6.30;3.03;;;;;;;8.72;100.00;101037.31;5078056;28;20457;-82
2023/03/20 01:44:35;;;;;;;8.43;3.10;;;;;;;8.77;100.00;101043.53;5078381;28;21005;-83
2023/03/20 01:47:05;;;;;;;10.50;3.37;;;;;;;8.80;100.00;101042.94;5078623;28;20493;-82
2023/03/20 01:50:15;;;;;;;6.77;2.37;;;;;;;8.79;100.00;101035.94;5079637;28;20466;-83
2023/03/20 01:52:43;;;;;;;6.80;2.70;;;;;;;8.77;100.00;101042.72;5062827;28;20484;-82
2023/03/20 01:55:10;;;;;;;6.57;3.10;;;;;;;8.81;100.00;101038.38;5084856;28;20467;-83
2023/03/20 01:57:38;;;;;;;8.00;2.57;;;;;;;8.74;100.00;101038.66;5086368;28;20479;-83
2023/03/20 02:00:10;;;;;;;8.60;3.00;;;;;;;8.74;100.00;101033.25;5087190;28;20465;-83
2023/03/20 02:02:41;;;;;;;8.10;2.97;;;;;;;8.66;100.00;101041.94;5087967;28;20484;-83
2023/03/20 02:05:10;;;;;;;9.20;3.70;;;;;;;8.65;100.00;101031.41;5087220;28;20986;-83
2023/03/20 02:07:39;;;;;;;8.30;2.90;;;;;;;8.60;100.00;101043.06;5091283;28;20433;-84
2023/03/20 02:10:11;;;;;;;6.47;2.53;;;;;;;8.57;100.00;101039.00;5095187;28;20473;-83
2023/03/20 02:12:41;;;;;;;8.67;3.20;;;;;;;8.57;100.00;101030.91;5084018;28;20453;-82
2023/03/20 02:15:08;;;;;;;8.40;3.10;;;;;;;8.52;100.00;101047.13;5077137;28;20451;-82
2023/03/20 02:17:35;;;;;;;9.30;3.70;;;;;;;8.51;100.00;101040.13;5076998;28;20457;-82
2023/03/20 02:20:12;;;;;;;11.80;3.27;;;;;;;8.52;100.00;101049.00;5076988;28;20492;-82
2023/03/20 02:23:29;;;;;;;9.77;3.80;;;;;;;8.51;100.00;101036.59;5076292;28;20414;-82
2023/03/20 02:26:22;;;;;;;11.77;4.17;;;;;;;8.49;100.00;101044.16;5063222;28;20885;-82
2023/03/20 02:29:21;;;;;;;8.83;3.70;;;;;;;8.40;100.00;101040.41;5076426;28;20512;-83
2023/03/20 02:32:39;;;;;;;9.27;3.70;;;;;;;8.44;100.00;101033.38;5076760;28;20418;-82
2023/03/20 02:35:45;;;;;;;9.47;3.63;;;;;;;8.42;100.00;101046.38;5014015;28;20448;-82
2023/03/20 02:38:43;;;;;;;11.17;4.10;;;;;;;8.43;100.00;101048.78;5067507;28;20532;-82
2023/03/20 02:41:21;;;;;;;8.47;3.47;;;;;;;8.46;100.00;101048.22;5074320;28;20483;-83
2023/03/20 02:43:54;;;;;;;8.70;3.50;;;;;;;8.48;100.00;101037.16;5075551;28;20508;-82
2023/03/20 02:46:30;;;;;;;8.50;3.80;;;;;;;8.50;100.00;101038.50;5076732;28;20503;-82
2023/03/20 02:49:01;;;;;;;10.47;3.73;;;;;;;8.49;100.00;101036.88;5075381;28;20449;-83
2023/03/20 02:51:36;;;;;;;12.33;4.07;;;;;;;8.49;100.00;101042.25;5075175;28;20461;-83
2023/03/20 02:54:11;;;;;;;12.10;4.93;;;;;;;8.54;100.00;101041.44;5075453;28;20470;-83
2023/03/20 02:56:48;;;;;;;7.90;4.03;;;;;;;8.57;100.00;101047.09;5075141;28;20524;-83
2023/03/20 02:59:26;;;;;;;11.53;4.50;;;;;;;8.68;100.00;101045.19;5074975;28;20533;-83
2023/03/20 03:01:56;;;;;;;9.03;4.00;;;;;;;8.75;100.00;101044.88;5075621;28;20513;-83
2023/03/20 03:04:27;;;;;;;15.70;4.80;;;;;;;8.75;100.00;101044.88;5075293;28;20560;-83
2023/03/20 03:06:58;;;;;;;9.33;4.30;;;;;;;8.68;100.00;101028.97;5075465;28;20496;-83
2023/03/20 03:09:31;;;;;;;9.97;4.13;;;;;;;8.75;100.00;101037.56;5075391;28;20483;-83
2023/03/20 03:12:05;;;;;;;10.13;4.03;;;;;;;8.80;100.00;101042.94;5075786;28;20495;-83
2023/03/20 03:14:37;;;;;;;9.77;4.57;;;;;;;8.82;100.00;101051.59;5075499;28;20457;-83
2023/03/20 03:17:07;;;;;;;10.30;4.60;;;;;;;8.83;100.00;101055.91;5075278;28;20449;-83
2023/03/20 03:19:36;;;;;;;12.07;4.67;;;;;;;8.79;100.00;101057.53;5075365;28;20459;-83
2023/03/20 03:22:03;;;;;;;15.17;4.87;;;;;;;8.86;100.00;101051.84;5075177;28;20453;-83
2023/03/20 03:24:34;;;;;;;11.00;4.40;;;;;;;8.86;100.00;101062.66;5074826;28;20572;-84
2023/03/20 03:27:05;;;;;;;11.13;4.33;;;;;;;8.87;100.00;101058.06;5075649;28;20430;-83
2023/03/20 03:29:36;;;;;;;14.90;4.57;;;;;;;8.88;100.00;101059.66;5075282;28;20425;-83
2023/03/20 03:32:06;;;;;;;9.80;4.10;;;;;;;8.93;100.00;101056.94;5075198;28;20796;-83
2023/03/20 03:34:34;;;;;;;8.80;3.83;;;;;;;8.91;100.00;101056.41;5074744;28;20871;-83
2023/03/20 03:37:07;;;;;;;11.40;4.00;;;;;;;8.91;100.00;101053.72;5078899;28;20532;-83
2023/03/20 03:39:42;;;;;;;8.90;3.73;;;;;;;8.91;100.00;101061.81;5079347;28;20448;-83
2023/03/20 03:42:17;;;;;;;13.83;4.97;;;;;;;8.88;100.00;101054.25;5080414;28;20959;-83
2023/03/20 03:44:53;;;;;;;10.67;4.43;;;;;;;8.84;100.00;101051.31;5079790;28;20534;-83
2023/03/20 03:47:23;;;;;;;12.27;4.97;;;;;;;8.83;100.00;101053.19;5080270;28;20431;-83
2023/03/20 03:49:53;;;;;;;10.90;4.80;;;;;;;8.82;100.00;101045.38;5079533;28;20473;-82
2023/03/20 03:52:24;;;;;;;9.17;4.43;;;;;;;8.79;100.00;101046.72;5080729;28;20505;-82
2023/03/20 03:54:57;;;;;;;8.07;3.60;;;;;;;8.86;100.00;101048.34;5080515;28;20799;-82
2023/03/20 03:57:29;;;;;;;16.53;4.00;;;;;;;8.81;100.00;101066.19;5080866;28;20425;-82
2023/03/20 03:59:58;;;;;;;20.70;4.97;;;;;;;8.84;100.00;101054.81;5080597;28;20488;-82
2023/03/20 04:02:25;;;;;;;8.93;3.93;;;;;;;8.86;100.00;101062.66;5080362;28;20455;-82
2023/03/20 04:04:53;;;;;;;10.77;5.07;;;;;;;8.91;100.00;101061.81;5080169;28;20530;-82
2023/03/20 04:07:21;;;;;;;9.10;4.50;;;;;;;8.89;100.00;101058.56;5080331;28;20449;-82
2023/03/20 04:09:47;;;;;;;10.63;4.57;;;;;;;8.93;100.00;101062.34;5080363;28;20460;-82
2023/03/20 04:12:33;;;;;;;10.17;4.33;;;;;;;9.01;100.00;101072.56;5080409;28;20438;-82
2023/03/20 04:14:59;;;;;;;9.43;4.27;;;;;;;9.04;100.00;101069.31;5079994;28;20793;-82
2023/03/20 04:17:26;;;;;;;11.83;4.67;;;;;;;9.02;100.00;101068.78;5079932;28;20492;-82
2023/03/20 04:19:53;;;;;;;9.53;4.10;;;;;;;9.08;100.00;101070.38;5081429;28;20481;-82
2023/03/20 04:22:20;;;;;;;9.13;4.30;;;;;;;9.07;100.00;101074.16;5081320;28;20429;-82
2023/03/20 04:24:46;;;;;;;9.80;4.80;;;;;;;9.08;100.00;101076.59;5082115;28;20503;-82
2023/03/20 04:27:13;;;;;;;16.20;4.23;;;;;;;9.13;100.00;101085.75;5080841;28;20869;-82
2023/03/20 04:29:41;;;;;;;9.97;4.67;;;;;;;9.13;100.00;101081.16;5080414;28;20469;-82
2023/03/20 04:32:07;;;;;;;9.67;4.40;;;;;;;9.11;100.00;101086.00;5079467;28;20926;-82
2023/03/20 04:34:34;;;;;;;7.93;3.73;;;;;;;9.09;100.00;101083.59;5079247;28;20469;-82
2023/03/20 04:37:01;;;;;;;8.97;4.13;;;;;;;9.10;100.00;101077.09;5079729;28;20457;-82
2023/03/20 04:39:28;;;;;;;11.23;4.37;;;;;;;9.21;100.00;101090.56;5079448;28;20532;-83
2023/03/20 04:41:54;;;;;;;9.23;3.90;;;;;;;9.21;100.00;101080.56;5079365;28;20452;-82
2023/03/20 04:44:21;;;;;;;10.67;4.50;;;;;;;9.22;100.00;101081.38;5079492;28;20928;-82
2023/03/20 04:46:49;;;;;;;8.00;3.20;;;;;;;9.25;100.00;101091.59;5078969;28;20788;-82
2023/03/20 04:49:16;;;;;;;8.90;3.77;;;;;;;9.22;100.00;101084.09;5078701;28;20459;-83
2023/03/20 04:51:42;;;;;;;8.73;4.00;;;;;;;9.21;100.00;101096.78;5078690;28;20481;-82
2023/03/20 04:54:09;;;;;;;8.47;3.87;;;;;;;9.21;100.00;101085.97;5080725;28;20468;-82
2023/03/20 04:56:36;;;;;;;8.93;3.87;;;;;;;9.20;100.00;101095.16;5079740;28;20814;-82
2023/03/20 04:59:02;;;;;;;7.87;3.70;;;;;;;9.17;100.00;101093.03;5079442;28;20998;-82
2023/03/20 05:01:29;;;;;;;11.83;4.77;;;;;;;9.14;100.00;101090.88;5078943;28;20962;-83
2023/03/20 05:03:59;;;;;;;10.47;4.70;;;;;;;9.12;100.00;101082.25;5079023;28;21033;-82
2023/03/20 05:06:26;;;;;;;9.27;4.10;;;;;;;9.11;100.00;101088.72;5079143;28;20477;-82
2023/03/20 05:08:53;;;;;;;9.50;3.90;;;;;;;9.08;100.00;101092.00;5079101;28;20965;-82
2023/03/20 05:11:19;;;;;;;8.50;4.03;;;;;;;9.05;100.00;101090.66;5079224;28;20549;-82
2023/03/20 05:13:46;;;;;;;11.20;4.90;;;;;;;9.06;100.00;101091.44;5078925;28;20517;-82
2023/03/20 05:16:13;;;;;;;11.30;4.20;;;;;;;9.12;100.00;101097.63;5079047;28;20844;-83
2023/03/20 05:18:39;;;;;;;14.43;4.33;;;;;;;9.11;100.00;101086.00;5077434;28;20434;-84
2023/03/20 05:21:08;;;;;;;8.93;3.60;;;;;;;9.13;100.00;101094.66;5077457;28;20485;-81
2023/03/20 05:23:35;;;;;;;8.30;3.97;;;;;;;9.06;100.00;101096.84;5078197;28;20453;-80
2023/03/20 05:26:02;;;;;;;9.03;4.33;;;;;;;9.10;100.00;101100.63;5077674;28;20561;-81
2023/03/20 05:28:29;;;;;;;10.03;4.30;;;;;;;9.10;100.00;101092.50;5077682;28;20469;-84
2023/03/20 05:30:56;;;;;;;11.83;5.40;;;;;;;9.07;100.00;101084.94;5077363;28;20536;-83
2023/03/20 05:33:23;;;;;;;12.63;5.47;;;;;;;9.12;100.00;101087.66;5077864;28;20545;-83
2023/03/20 05:35:50;;;;;;;11.20;5.90;;;;;;;9.14;100.00;101096.28;5077825;28;20437;-84
2023/03/20 05:38:21;;;;;;;10.63;5.03;;;;;;;9.25;100.00;101097.84;5078321;28;20480;-83
2023/03/20 05:40:48;;;;;;;13.20;6.33;;;;;;;9.31;100.00;101087.81;5077378;28;20474;-83
2023/03/20 05:43:15;;;;;;;13.37;5.93;;;;;;;9.45;100.00;101087.97;5077796;28;20502;-83
2023/03/20 05:45:42;;;;;;;16.17;6.23;;;;;;;9.53;100.00;101098.22;5078081;28;20560;-84
2023/03/20 05:48:09;;;;;;;12.93;5.90;;;;;;;9.60;100.00;101102.19;5078490;28;20446;-84
2023/03/20 05:50:35;;;;;;;15.03;6.23;;;;;;;9.68;100.00;101106.19;5078080;28;20446;-84
2023/03/20 05:53:02;;;;;;;19.23;8.10;;;;;;;9.71;100.00;101105.66;5078650;28;20430;-83
2023/03/20 05:55:31;;;;;;;12.27;5.77;;;;;;;9.78;100.00;101102.59;5078807;28;20472;-85
2023/03/20 05:57:58;;;;;;;18.23;7.40;;;;;;;9.84;100.00;101109.59;5077891;28;20433;-83
2023/03/20 06:00:25;;;;;;;16.70;7.70;;;;;;;9.92;100.00;101121.72;5078092;28;20473;-84
2023/03/20 06:02:52;;;;;;;16.93;7.63;;;;;;;9.93;100.00;101118.72;5079238;28;20441;-83
2023/03/20 06:05:19;;;;;;;14.70;6.50;;;;;;;9.91;100.00;101130.91;5079123;28;20572;-84
2023/03/20 06:07:45;;;;;;;15.80;7.70;;;;;;;9.93;100.00;101129.56;5078524;28;20452;-83
2023/03/20 06:10:12;;;;;;;15.97;7.13;;;;;;;9.87;100.00;101133.38;5079579;28;20465;-82
2023/03/20 06:12:40;;;;;;;17.80;8.30;;;;;;;9.83;100.00;101125.03;5079011;28;20466;-82
2023/03/20 06:15:08;;;;;;;13.30;6.93;;;;;;;9.87;100.00;101130.66;5078221;28;20987;-83
2023/03/20 06:17:34;;;;;;;19.43;7.87;;;;;;;9.84;100.00;101133.97;5080780;28;20492;-83
2023/03/20 06:20:01;;;;;;;21.20;9.13;;;;;;;9.81;100.00;101140.72;5079948;28;20460;-82
2023/03/20 06:22:28;;;;;;;18.60;8.57;;;;;;;9.75;100.00;101141.06;5080524;28;20449;-83
2023/03/20 06:24:56;;;;;;;20.53;9.30;;;;;;;9.76;100.00;101151.59;5080264;28;20509;-83
2023/03/20 06:27:22;;;;;;;27.50;10.47;;;;;;;9.79;100.00;101156.44;5079375;28;20827;-84
2023/03/20 06:33:39;;;;;;;17.93;9.07;;;;;;;9.71;100.00;101164.34;4942285;29;20484;-83
2023/03/20 06:36:06;;;;;;;22.30;10.80;;;;;;;9.76;100.00;101173.22;5016070;28;20468;-82
2023/03/20 06:38:32;;;;;;;24.87;11.17;;;;;;;9.75;100.00;101174.34;5083012;28;20772;-83
2023/03/20 06:41:09;;;;;;;25.07;10.73;;;;;;;9.56;100.00;101178.75;5076371;28;20833;-81
2023/03/20 06:43:38;;;;;;;26.07;11.07;;;;;;;9.59;100.00;101168.19;5075298;28;20874;-82
2023/03/20 06:46:25;;;;;;;22.00;9.53;;;;;;;9.64;100.00;101167.34;5075919;28;20499;-84
2023/03/20 06:49:00;;;;;;;27.57;10.97;;;;;;;9.60;100.00;101171.69;5076421;28;20525;-84
2023/03/20 06:51:27;;;;;;;32.40;10.80;;;;;;;9.60;100.00;101174.41;5075463;28;20464;-83
2023/03/20 06:54:22;;;;;;;27.17;11.00;;;;;;;9.63;100.00;101178.47;5075638;28;20425;-84
2023/03/20 06:56:53;;;;;;;27.90;10.80;;;;;;;9.48;100.00;101177.47;5075795;28;20444;-83
2023/03/20 07:02:07;;;;;;;27.00;11.57;;;;;;;9.54;100.00;101181.75;5056657;28;20456;-82
2023/03/20 07:04:35;;;;;;;30.87;11.60;;;;;;;9.47;100.00;101193.94;5076345;28;20433;-84
2023/03/20 07:07:04;;;;;;;30.80;11.03;;;;;;;9.43;100.00;101204.53;5079830;28;20467;-85
2023/03/20 07:09:31;;;;;;;20.10;9.13;;;;;;;9.43;100.00;101195.59;5079833;28;20646;-84
2023/03/20 07:11:58;;;;;;;23.93;9.60;;;;;;;9.47;100.00;101202.06;5078555;28;20449;-84
2023/03/20 07:14:25;;;;;;;24.73;11.03;;;;;;;9.48;100.00;101203.72;5079950;28;20440;-82
2023/03/20 07:16:55;;;;;;;24.47;10.93;;;;;;;9.49;100.00;101200.72;5073945;28;20456;-84
2023/03/20 07:19:22;;;;;;;30.77;11.47;;;;;;;9.53;100.00;101198.28;5075209;28;20450;-84
2023/03/20 07:21:55;;;;;;;27.10;10.33;;;;;;;9.57;100.00;101204.75;5076862;28;20464;-84
2023/03/20 07:24:25;;;;;;;25.97;10.60;;;;;;;9.63;100.00;101195.50;5073793;28;20458;-83
2023/03/20 07:26:57;;;;;;;28.40;11.43;;;;;;;9.68;100.00;101203.56;5073393;28;20534;-84
2023/03/20 07:29:24;;;;;;;31.20;13.77;;;;;;;9.76;100.00;101200.28;5074220;28;20417;-83
2023/03/20 07:31:50;;;;;;;23.97;10.10;;;;;;;9.84;100.00;101207.81;5073779;28;20453;-83
2023/03/20 07:34:37;;;;;;;27.67;12.27;;;;;;;10.03;100.00;101217.97;5073898;28;20445;-83
2023/03/20 07:37:05;;;;;;;26.03;10.70;;;;;;;10.14;100.00;101210.56;5073764;28;20433;-83
2023/03/20 07:39:34;;;;;;;26.90;11.17;;;;;;;10.21;100.00;101206.47;5073795;28;20460;-83
2023/03/20 07:42:01;;;;;;;34.83;10.57;;;;;;;10.19;100.00;101210.56;5073506;28;20445;-83
2023/03/20 07:44:28;;;;;;;20.67;9.90;;;;;;;10.21;100.00;101203.75;5073747;28;20486;-84
2023/03/20 07:47:10;;;;;;;21.03;10.23;;;;;;;10.29;100.00;101216.72;5073842;28;20481;-84
2023/03/20 07:49:38;;;;;;;33.57;11.50;;;;;;;10.33;100.00;101222.38;5074305;28;20500;-84
2023/03/20 07:52:09;;;;;;;27.00;11.83;;;;;;;10.38;100.00;101216.13;5073796;28;20454;-83
2023/03/20 07:54:36;;;;;;;30.97;10.30;;;;;;;10.26;100.00;101209.16;5073955;28;20429;-83
2023/03/20 07:57:07;;;;;;;26.47;10.10;;;;;;;10.34;100.00;101207.75;5073885;28;20818;-83
2023/03/20 07:59:34;;;;;;;29.57;11.00;;;;;;;10.39;100.00;101213.13;5073564;28;20800;-84
2023/03/20 08:02:06;;;;;;;31.87;11.10;;;;;;;10.52;100.00;101223.28;5073853;28;20437;-84
2023/03/20 08:04:33;;;;;;;25.50;10.73;;;;;;;10.50;100.00;101219.25;5073701;28;20433;-84
2023/03/20 08:07:29;;;;;;;25.10;9.37;;;;;;;10.61;100.00;101231.59;5073496;28;20505;-84
2023/03/20 08:09:56;;;;;;;22.17;9.90;;;;;;;10.70;100.00;101229.88;5073846;28;20473;-83
2023/03/20 08:12:23;;;;;;;26.70;10.50;;;;;;;10.76;100.00;101234.19;5073669;28;21008;-84
2023/03/20 08:14:50;;;;;;;24.57;9.87;;;;;;;10.71;100.00;101239.63;5074461;28;20518;-84
2023/03/20 08:17:35;;;;;;;22.87;9.47;;;;;;;10.72;100.00;101252.09;5073609;28;20943;-84
2023/03/20 08:20:02;;;;;;;32.87;12.10;;;;;;;10.57;100.00;101244.09;5074158;28;20465;-84
2023/03/20 08:22:30;;;;;;;27.37;11.07;;;;;;;10.61;100.00;101237.03;5076519;28;20969;-81
2023/03/20 08:24:57;;;;;;;26.93;10.10;;;;;;;10.71;100.00;101236.13;5078406;28;20460;-82
2023/03/20 08:27:23;;;;;;;24.40;10.03;;;;;;;10.82;100.00;101233.03;5078483;28;20813;-81
2023/03/20 08:29:50;;;;;;;26.13;10.57;;;;;;;10.95;100.00;101226.13;5081536;28;20457;-81
2023/03/20 08:32:17;;;;;;;27.10;10.17;;;;;;;11.05;100.00;101228.72;5078494;28;20805;-81
2023/03/20 08:34:44;;;;;;;23.53;10.10;;;;;;;11.27;100.00;101221.97;5078835;28;20441;-81
2023/03/20 08:37:11;;;;;;;26.83;9.50;;;;;;;11.43;99.58;101226.13;5078665;28;20437;-82
2023/03/20 08:39:39;;;;;;;26.83;10.57;;;;;;;11.55;97.61;101222.97;5077884;28;20461;-81
2023/03/20 08:42:06;;;;;;;19.43;9.33;;;;;;;11.65;97.09;101225.56;5077805;28;20508;-81
2023/03/20 08:44:33;;;;;;;18.90;8.90;;;;;;;11.81;95.44;101237.78;5077280;28;20949;-80
2023/03/20 08:46:59;;;;;;;22.97;9.03;;;;;;;11.84;93.62;101231.00;5077628;28;20481;-80
2023/03/20 08:49:26;;;;;;;19.10;8.40;;;;;;;11.81;94.45;101240.50;5077736;28;20895;-80
2023/03/20 08:51:53;;;;;;;26.00;8.93;;;;;;;11.93;92.68;101226.53;5079503;28;20802;-81
2023/03/20 08:54:19;;;;;;;25.43;8.97;;;;;;;12.02;90.91;101240.25;5077999;28;20473;-80
2023/03/20 08:56:47;;;;;;;35.40;11.20;;;;;;;11.91;92.15;101230.63;5077608;28;20957;-81
2023/03/20 08:59:14;;;;;;;24.77;10.10;;;;;;;12.01;92.91;101230.50;5077210;28;20476;-81
2023/03/20 09:01:41;;;;;;;18.80;8.80;;;;;;;12.02;90.55;101238.34;5077534;28;20522;-81
2023/03/20 09:04:07;;;;;;;18.77;7.13;;;;;;;12.14;89.05;101239.81;5076570;28;20900;-82
2023/03/20 09:06:36;;;;;;;16.13;7.27;;;;;;;12.16;88.37;101243.84;5076424;28;20580;-80
2023/03/20 09:09:03;;;;;;;18.00;6.80;;;;;;;12.18;89.69;101244.38;5076756;28;20499;-81
2023/03/20 09:11:30;;;;;;;25.63;7.60;;;;;;;12.43;88.27;101242.31;5076445;28;20469;-81
2023/03/20 09:13:59;;;;;;;15.97;5.20;;;;;;;12.62;86.00;101245.81;5076706;28;20469;-80
2023/03/20 09:16:26;;;;;;;17.97;6.60;;;;;;;12.67;85.79;101234.84;5076468;28;20843;-80
2023/03/20 09:18:52;;;;;;;19.00;5.73;;;;;;;12.73;85.87;101236.38;5076638;28;20532;-80
2023/03/20 09:21:19;;;;;;;19.93;6.27;;;;;;;12.88;83.46;101238.00;5076394;28;20472;-80
2023/03/20 09:23:46;;;;;;;14.40;6.57;;;;;;;13.00;81.64;101242.94;5076312;28;20445;-80
2023/03/20 09:26:12;;;;;;;13.83;6.07;;;;;;;12.94;81.80;101241.44;5077135;28;20872;-79
2023/03/20 09:28:39;;;;;;;18.03;6.00;;;;;;;12.91;82.96;101233.88;5076791;28;20520;-79
2023/03/20 09:31:07;;;;;;;15.60;6.47;;;;;;;12.93;82.83;101237.13;5076984;28;21055;-80
2023/03/20 09:33:34;;;;;;;13.90;5.43;;;;;;;13.04;79.74;101241.25;5076497;28;20532;-80
2023/03/20 09:36:01;;;;;;;16.23;4.40;;;;;;;12.91;81.66;101242.03;5077603;28;20437;-79
2023/03/20 09:38:27;;;;;;;16.77;5.60;;;;;;;12.94;79.99;101236.00;5077614;28;20855;-79
2023/03/20 09:40:57;;;;;;;16.43;6.07;;;;;;;12.91;80.70;101248.28;5076593;28;20461;-80
2023/03/20 09:43:44;;;;;;;16.53;5.80;;;;;;;12.81;80.22;101248.47;5077461;28;20884;-79
2023/03/20 09:46:24;;;;;;;16.80;4.97;;;;;;;12.79;80.95;101237.06;5077197;28;20830;-79
2023/03/20 09:48:57;;;;;;;14.30;5.17;;;;;;;12.72;80.80;101245.63;5076552;28;20524;-80
2023/03/20 09:51:33;;;;;;;11.93;5.33;;;;;;;12.69;79.79;101246.22;5078293;28;20461;-80
2023/03/20 09:54:04;;;;;;;19.37;5.47;;;;;;;12.67;79.38;101253.09;5084574;28;20543;-78
2023/03/20 09:56:31;;;;;;;13.67;4.67;;;;;;;12.67;80.81;101251.16;5082946;28;20429;-80
2023/03/20 09:58:59;;;;;;;8.97;3.60;;;;;;;12.71;80.84;101245.94;5078249;28;20868;-78
2023/03/20 10:01:33;;;;;;;11.30;4.83;;;;;;;12.80;80.18;101249.59;5076263;28;20454;-78
2023/03/20 10:04:04;;;;;;;13.13;4.67;;;;;;;12.84;81.06;101248.69;5075001;28;20415;-78
2023/03/20 10:06:30;;;;;;;14.13;5.17;;;;;;;12.89;79.39;101242.34;5075352;28;20473;-78
2023/03/20 10:08:57;;;;;;;24.53;7.10;;;;;;;12.88;79.58;101243.44;5076003;28;20535;-79
2023/03/20 10:11:46;;;;;;;12.47;4.80;;;;;;;12.82;81.22;101253.59;5076111;28;20465;-79
2023/03/20 10:14:24;;;;;;;11.93;5.43;;;;;;;12.84;80.22;101256.03;5075757;28;20516;-79
2023/03/20 10:17:03;;;;;;;12.30;5.23;;;;;;;12.79;79.36;101247.94;5075404;28;20450;-79
2023/03/20 10:19:32;;;;;;;14.20;4.63;;;;;;;12.72;80.08;101253.78;5075010;28;20941;-79
2023/03/20 10:22:02;;;;;;;13.63;4.63;;;;;;;12.65;80.33;101249.84;5075346;28;20891;-79
2023/03/20 10:24:32;;;;;;;14.07;4.10;;;;;;;12.66;79.41;101252.28;5075276;28;20923;-80
2023/03/20 10:27:05;;;;;;;11.20;3.90;;;;;;;12.67;79.46;101253.88;5074888;28;20568;-79
2023/03/20 10:29:45;;;;;;;14.70;4.40;;;;;;;12.58;80.78;101255.69;5075836;28;20963;-79
2023/03/20 10:32:19;;;;;;;11.10;4.13;;;;;;;12.73;79.02;101251.88;5076835;28;20496;-79
2023/03/20 10:35:02;;;;;;;9.10;3.70;;;;;;;12.77;79.96;101247.47;5075299;28;20437;-78
2023/03/20 10:37:42;;;;;;;9.83;3.70;;;;;;;12.81;78.97;101243.84;5076072;28;20426;-79
2023/03/20 10:40:25;;;;;;;8.13;2.67;;;;;;;12.94;79.06;101242.25;5077115;28;20962;-78
2023/03/20 10:42:55;;;;;;;12.60;4.10;;;;;;;13.04;75.91;101235.81;5079338;28;20434;-78
2023/03/20 10:45:31;;;;;;;11.10;4.27;;;;;;;13.12;75.78;101249.50;5076238;28;20498;-80
2023/03/20 10:48:02;;;;;;;11.03;3.67;;;;;;;13.08;75.92;101245.78;5076220;28;20465;-78
2023/03/20 10:50:35;;;;;;;9.93;2.60;;;;;;;13.13;76.17;101242.97;5074806;28;20489;-80
2023/03/20 10:53:04;;;;;;;12.20;4.60;;;;;;;13.02;75.31;101248.91;5075260;28;20866;-79
2023/03/20 10:55:34;;;;;;;12.03;3.83;;;;;;;12.96;76.16;101244.66;5076774;28;20449;-78
2023/03/20 10:58:11;;;;;;;10.37;4.00;;;;;;;13.00;76.01;101242.94;5079342;28;20439;-78
2023/03/20 11:00:39;;;;;;;8.67;3.53;;;;;;;13.10;76.03;101245.47;5078187;28;20504;-78
2023/03/20 11:03:15;;;;;;;9.47;3.27;;;;;;;13.15;74.86;101234.50;5081588;28;20449;-78
2023/03/20 11:05:43;;;;;;;9.30;3.47;;;;;;;12.86;75.62;101229.34;5084160;28;20425;-79
2023/03/20 11:08:13;;;;;;;15.53;4.70;;;;;;;12.91;76.03;101231.16;5082902;28;20474;-78
2023/03/20 11:10:42;;;;;;;13.07;3.57;;;;;;;12.91;75.98;101225.72;5080820;28;20469;-78
2023/03/20 11:13:18;;;;;;;10.30;3.47;;;;;;;12.91;76.39;101236.59;5084688;28;20438;-79
2023/03/20 11:15:45;;;;;;;8.63;3.37;;;;;;;12.92;76.50;101240.91;5084032;28;20910;-79
2023/03/20 11:18:15;;;;;;;8.30;3.17;;;;;;;12.81;76.61;101238.41;5087763;28;20477;-79
2023/03/20 11:20:46;;;;;;;9.57;3.53;;;;;;;12.77;78.97;101237.38;5088506;28;20556;-79
2023/03/20 11:23:17;;;;;;;20.67;5.10;;;;;;;12.84;77.23;101235.09;5083606;28;20414;-78
2023/03/20 11:25:54;;;;;;;13.30;4.30;;;;;;;13.00;76.92;101237.50;5089807;28;20414;-79
2023/03/20 11:28:32;;;;;;;11.47;3.93;;;;;;;13.19;77.83;101231.97;5089182;28;20812;-78
2023/03/20 11:31:00;;;;;;;11.67;4.20;;;;;;;13.27;74.33;101232.09;5081734;28;20473;-78
2023/03/20 11:33:30;;;;;;;13.47;4.23;;;;;;;13.21;75.13;101232.50;5082256;28;20472;-78
2023/03/20 11:35:58;;;;;;;9.93;4.00;;;;;;;13.14;76.07;101238.31;5086578;28;20429;-78
2023/03/20 11:38:25;;;;;;;13.40;3.93;;;;;;;13.03;75.71;101232.28;5081544;28;20505;-78